Time;durP1;ratioP1;P1;durP2;ratioP2;P2;SDS_P1;SDS_P2;PMS_P1;PMS_P2;Temp;Humidity;BMP_temperature;BMP_pressure;BME280_temperature;BME280_humidity;BME280_pressure;Samples;Min_cycle;Max_cycle;Signal;HPM_P1;HPM_P2
2022/12/31 00:01:18;;;;;;;24.30;14.00;;;11.20;99.90;;;;;;5012249;28;20109;-72
2022/12/31 00:03:44;;;;;;;22.65;15.00;;;11.30;99.90;;;;;;4994491;28;20462;-72
2022/12/31 00:06:15;;;;;;;26.25;15.90;;;11.20;99.90;;;;;;5011983;28;20049;-72
2022/12/31 00:08:42;;;;;;;19.23;14.02;;;11.20;99.90;;;;;;5013014;28;20057;-72
2022/12/31 00:11:08;;;;;;;22.73;12.63;;;11.20;99.90;;;;;;5011962;28;20022;-72
2022/12/31 00:13:34;;;;;;;19.52;13.20;;;11.20;99.90;;;;;;4994363;28;20498;-72
2022/12/31 00:16:16;;;;;;;25.35;13.45;;;11.20;99.90;;;;;;5006317;28;20081;-73
2022/12/31 00:18:49;;;;;;;22.05;13.82;;;11.20;99.90;;;;;;4993708;28;20057;-72
2022/12/31 00:21:16;;;;;;;24.10;13.77;;;11.20;99.90;;;;;;5013568;28;20489;-72
2022/12/31 00:23:42;;;;;;;23.67;13.95;;;11.20;99.90;;;;;;5015973;28;20105;-71
2022/12/31 00:26:13;;;;;;;19.35;13.32;;;11.20;99.90;;;;;;5014119;28;20038;-72
2022/12/31 00:28:40;;;;;;;21.38;12.82;;;11.20;99.90;;;;;;5016811;28;20028;-73
2022/12/31 00:31:10;;;;;;;22.10;12.20;;;11.20;99.90;;;;;;4997854;28;20026;-74
2022/12/31 00:33:36;;;;;;;20.85;13.30;;;11.20;99.90;;;;;;5008143;28;20033;-73
2022/12/31 00:36:07;;;;;;;25.40;12.65;;;11.20;99.90;;;;;;5013983;28;20026;-73
2022/12/31 00:38:33;;;;;;;18.00;11.95;;;11.20;99.90;;;;;;5010159;28;20033;-73
2022/12/31 00:40:59;;;;;;;20.55;12.40;;;11.20;99.90;;;;;;5012066;28;20040;-73
2022/12/31 00:43:25;;;;;;;20.77;11.27;;;11.30;99.90;;;;;;5000111;28;20026;-73
2022/12/31 00:45:51;;;;;;;22.17;12.77;;;11.20;99.90;;;;;;5013268;28;20018;-73
2022/12/31 00:48:17;;;;;;;19.60;12.00;;;11.20;99.90;;;;;;4998165;28;20022;-73
2022/12/31 00:50:43;;;;;;;22.83;12.38;;;11.20;99.90;;;;;;4997294;28;20029;-73
2022/12/31 00:53:09;;;;;;;18.85;12.18;;;11.20;99.90;;;;;;5013492;28;20025;-74
2022/12/31 00:55:35;;;;;;;22.40;12.95;;;11.20;99.90;;;;;;5015069;28;20023;-73
2022/12/31 00:58:01;;;;;;;23.33;12.10;;;11.30;99.90;;;;;;5013210;28;20501;-73
2022/12/31 01:00:26;;;;;;;23.38;13.13;;;11.30;99.90;;;;;;4997622;28;20022;-72
2022/12/31 01:02:52;;;;;;;16.13;12.30;;;11.30;99.90;;;;;;5013233;28;20034;-72
2022/12/31 01:05:18;;;;;;;20.08;11.95;;;11.30;99.90;;;;;;5015403;28;20390;-73
2022/12/31 01:07:44;;;;;;;26.63;13.80;;;11.30;99.90;;;;;;4992062;28;20026;-71
2022/12/31 01:10:10;;;;;;;23.05;13.73;;;11.30;99.90;;;;;;4997745;28;20017;-73
2022/12/31 01:12:36;;;;;;;21.73;13.35;;;11.30;99.90;;;;;;5011936;28;20037;-72
2022/12/31 01:15:02;;;;;;;19.58;13.05;;;11.30;99.90;;;;;;5017302;28;20017;-72
2022/12/31 01:17:28;;;;;;;18.92;13.25;;;11.30;99.90;;;;;;4991801;28;20040;-72
2022/12/31 01:19:53;;;;;;;20.63;13.82;;;11.30;99.90;;;;;;5016589;28;20026;-73
2022/12/31 01:22:19;;;;;;;18.75;13.38;;;11.30;99.90;;;;;;5012144;28;20041;-72
2022/12/31 01:24:45;;;;;;;28.38;13.30;;;11.30;99.90;;;;;;5015376;28;20022;-72
2022/12/31 01:27:11;;;;;;;18.95;12.65;;;11.30;99.90;;;;;;5014053;28;20025;-73
2022/12/31 01:29:36;;;;;;;22.20;12.50;;;11.30;99.90;;;;;;4999319;28;20045;-73
2022/12/31 01:32:02;;;;;;;19.30;12.43;;;11.30;99.90;;;;;;5014880;28;20112;-72
2022/12/31 01:34:28;;;;;;;19.95;14.10;;;11.20;99.90;;;;;;5004107;28;20125;-72
2022/12/31 01:36:54;;;;;;;18.55;13.50;;;11.30;99.90;;;;;;5008537;28;20093;-72
2022/12/31 01:39:20;;;;;;;24.85;12.85;;;11.30;99.90;;;;;;5014888;28;20053;-73
2022/12/31 01:41:46;;;;;;;24.70;13.85;;;11.30;99.90;;;;;;5009732;28;20105;-72
2022/12/31 01:44:12;;;;;;;23.17;14.07;;;11.30;99.90;;;;;;5014794;28;20020;-73
2022/12/31 01:46:41;;;;;;;24.48;14.93;;;11.40;99.90;;;;;;5011655;28;20021;-74
2022/12/31 01:49:20;;;;;;;26.23;15.48;;;11.40;99.90;;;;;;5016848;28;20026;-72
2022/12/31 01:52:14;;;;;;;21.90;13.25;;;11.30;99.90;;;;;;4991591;28;20058;-74
2022/12/31 01:54:46;;;;;;;24.75;14.18;;;11.30;99.90;;;;;;5005129;28;20041;-72
2022/12/31 01:57:13;;;;;;;20.42;13.27;;;11.30;99.90;;;;;;5009992;28;20106;-72
2022/12/31 01:59:40;;;;;;;22.77;13.35;;;11.30;99.90;;;;;;5009552;28;20371;-73
2022/12/31 02:02:05;;;;;;;22.23;13.02;;;11.40;99.90;;;;;;5009822;28;20461;-71
2022/12/31 02:04:31;;;;;;;26.48;12.05;;;11.30;99.90;;;;;;5010561;28;20029;-72
2022/12/31 02:07:03;;;;;;;18.02;12.88;;;11.40;99.90;;;;;;5009995;28;20026;-72
2022/12/31 02:09:30;;;;;;;24.63;12.18;;;11.40;99.90;;;;;;4998789;28;20040;-73
2022/12/31 02:11:56;;;;;;;23.38;12.68;;;11.30;99.90;;;;;;4999737;28;20026;-71
2022/12/31 02:14:27;;;;;;;28.20;13.18;;;11.30;99.90;;;;;;5010496;28;20033;-73
2022/12/31 02:17:30;;;;;;;23.23;12.48;;;11.30;99.90;;;;;;5005680;28;20033;-71
2022/12/31 02:20:14;;;;;;;23.17;14.50;;;11.30;99.90;;;;;;4998210;28;20030;-72
2022/12/31 02:23:17;;;;;;;21.33;12.32;;;11.30;99.90;;;;;;5003126;28;20037;-71
2022/12/31 02:25:45;;;;;;;22.42;13.02;;;11.30;99.90;;;;;;4994108;28;20138;-72
2022/12/31 02:28:40;;;;;;;18.95;12.10;;;11.30;99.90;;;;;;5012643;28;20014;-72
2022/12/31 02:31:16;;;;;;;26.30;13.82;;;11.30;99.90;;;;;;4996692;28;20053;-71
2022/12/31 02:33:42;;;;;;;20.77;13.02;;;11.30;99.90;;;;;;5009199;28;20564;-71
2022/12/31 02:36:32;;;;;;;20.95;13.80;;;11.30;99.90;;;;;;5014142;28;20034;-72
2022/12/31 02:38:58;;;;;;;;;;;11.30;99.90;;;;;;4983535;28;20037;-73
2022/12/31 02:44:29;;;;;;;19.23;12.35;;;11.30;99.90;;;;;;5004771;28;20108;-73
2022/12/31 02:47:11;;;;;;;26.13;12.80;;;11.40;99.90;;;;;;4990674;28;20442;-73
2022/12/31 02:50:02;;;;;;;15.00;9.60;;;11.40;99.90;;;;;;4998883;28;20035;-73
2022/12/31 02:52:36;;;;;;;;;;;11.40;99.90;;;;;;5009826;28;20029;-72
2022/12/31 02:55:20;;;;;;;22.02;12.50;;;11.40;99.90;;;;;;5017515;28;19905;-71
2022/12/31 02:57:57;;;;;;;14.98;11.48;;;11.40;99.90;;;;;;5014920;28;20038;-71
2022/12/31 03:03:09;;;;;;;20.67;12.15;;;11.40;99.90;;;;;;5014608;28;20037;-72
2022/12/31 03:05:42;;;;;;;25.17;14.10;;;11.30;99.90;;;;;;5017559;28;20027;-71
2022/12/31 03:08:08;;;;;;;24.08;13.98;;;11.30;99.90;;;;;;4997890;28;20389;-73
2022/12/31 03:10:35;;;;;;;17.02;12.23;;;11.30;99.90;;;;;;5017558;28;20040;-72
2022/12/31 03:13:02;;;;;;;24.33;10.02;;;11.40;99.90;;;;;;5001179;28;20026;-72
2022/12/31 03:15:31;;;;;;;26.02;12.30;;;11.40;99.90;;;;;;5017766;28;20089;-71
2022/12/31 03:18:09;;;;;;;22.98;13.07;;;11.40;99.90;;;;;;5014024;28;20026;-72
2022/12/31 03:23:29;;;;;;;19.23;12.82;;;11.40;99.90;;;;;;5009422;28;20117;-71
2022/12/31 03:25:55;;;;;;;22.35;13.35;;;11.40;99.90;;;;;;5016212;28;20120;-72
2022/12/31 03:28:26;;;;;;;20.23;11.88;;;11.40;99.90;;;;;;5009871;28;20030;-72
2022/12/31 03:30:58;;;;;;;20.15;12.60;;;11.50;99.90;;;;;;5017174;28;20029;-73
2022/12/31 03:33:25;;;;;;;19.08;11.77;;;11.50;99.90;;;;;;5011166;28;20490;-71
2022/12/31 03:35:52;;;;;;;22.63;12.75;;;11.40;99.90;;;;;;5014271;28;20071;-71
2022/12/31 03:38:18;;;;;;;19.75;11.82;;;11.50;99.90;;;;;;5000952;28;20029;-72
2022/12/31 03:40:47;;;;;;;26.08;13.57;;;11.40;99.90;;;;;;5011372;28;20023;-71
2022/12/31 03:43:14;;;;;;;21.92;10.07;;;11.40;99.90;;;;;;5007946;28;20025;-73
2022/12/31 03:45:39;;;;;;;24.33;11.68;;;11.40;99.90;;;;;;5012072;28;20070;-73
2022/12/31 03:48:07;;;;;;;17.52;11.90;;;11.40;99.90;;;;;;5006720;28;20077;-71
2022/12/31 03:50:33;;;;;;;19.65;12.10;;;11.40;99.90;;;;;;5014232;28;20026;-73
2022/12/31 03:52:59;;;;;;;19.05;13.10;;;11.40;99.90;;;;;;5008430;28;20041;-73
2022/12/31 03:55:25;;;;;;;27.35;13.18;;;11.40;99.90;;;;;;5014003;28;20026;-72
2022/12/31 03:57:51;;;;;;;26.65;12.75;;;11.40;99.90;;;;;;5009466;28;20553;-72
2022/12/31 04:00:19;;;;;;;23.00;13.43;;;11.40;99.90;;;;;;4995082;28;20034;-72
2022/12/31 04:02:48;;;;;;;26.52;11.95;;;11.40;99.90;;;;;;5010312;28;20108;-73
2022/12/31 04:05:15;;;;;;;22.65;13.65;;;11.40;99.90;;;;;;5015402;28;20018;-73
2022/12/31 04:07:41;;;;;;;13.88;9.90;;;11.40;99.90;;;;;;4991204;28;20030;-72
2022/12/31 04:10:09;;;;;;;18.98;12.35;;;11.40;99.90;;;;;;5016483;28;20029;-72
2022/12/31 04:12:35;;;;;;;23.15;12.43;;;11.40;99.90;;;;;;4983839;28;20030;-72
2022/12/31 04:15:01;;;;;;;20.02;12.13;;;11.40;99.90;;;;;;5017235;28;20017;-72
2022/12/31 04:17:27;;;;;;;21.35;13.25;;;11.40;99.90;;;;;;5003094;28;20042;-72
2022/12/31 04:19:53;;;;;;;19.05;13.05;;;11.40;99.90;;;;;;5017186;28;20032;-72
2022/12/31 04:22:19;;;;;;;23.00;11.20;;;11.40;99.90;;;;;;5005561;28;20555;-73
2022/12/31 04:24:45;;;;;;;21.90;13.35;;;11.30;99.90;;;;;;5016960;28;20018;-72
2022/12/31 04:27:12;;;;;;;20.30;13.20;;;11.40;99.90;;;;;;4995339;28;20042;-73
2022/12/31 04:29:38;;;;;;;17.10;11.55;;;11.40;99.90;;;;;;5017829;28;20503;-73
2022/12/31 04:32:05;;;;;;;24.60;12.23;;;11.30;99.90;;;;;;4991344;28;20053;-74
2022/12/31 04:34:32;;;;;;;18.35;12.10;;;11.30;99.90;;;;;;5016769;28;20057;-72
2022/12/31 04:36:58;;;;;;;19.83;12.38;;;11.40;99.90;;;;;;5005413;28;20037;-73
2022/12/31 04:39:24;;;;;;;19.25;13.43;;;11.30;99.90;;;;;;5006252;28;20026;-73
2022/12/31 04:41:50;;;;;;;27.50;12.80;;;11.40;99.90;;;;;;5012494;28;20037;-73
2022/12/31 04:44:16;;;;;;;22.98;12.45;;;11.40;99.90;;;;;;5007511;28;20021;-73
2022/12/31 04:46:42;;;;;;;17.45;12.90;;;11.40;99.90;;;;;;5009913;28;20027;-73
2022/12/31 04:49:08;;;;;;;20.25;12.35;;;11.40;99.90;;;;;;5008350;28;20064;-72
2022/12/31 04:51:37;;;;;;;19.23;12.23;;;11.40;99.90;;;;;;5011338;28;20037;-73
2022/12/31 04:54:03;;;;;;;15.85;12.55;;;11.40;99.90;;;;;;4996552;28;20065;-73
2022/12/31 04:56:30;;;;;;;21.23;11.57;;;11.40;99.90;;;;;;4985162;28;20486;-73
2022/12/31 04:58:57;;;;;;;25.92;14.52;;;11.40;99.90;;;;;;5017974;28;20026;-73
2022/12/31 05:01:23;;;;;;;15.95;12.57;;;11.40;99.90;;;;;;5010676;28;20124;-72
2022/12/31 05:03:50;;;;;;;25.75;13.18;;;11.40;99.90;;;;;;5017621;28;20355;-71
2022/12/31 05:06:20;;;;;;;22.25;13.15;;;11.40;99.90;;;;;;4993280;28;20030;-73
2022/12/31 05:08:47;;;;;;;18.27;11.90;;;11.40;99.90;;;;;;5017615;28;20022;-73
2022/12/31 05:11:14;;;;;;;30.17;12.32;;;11.40;99.90;;;;;;5011967;28;20094;-73
2022/12/31 05:13:40;;;;;;;20.35;12.88;;;11.40;99.90;;;;;;5014400;28;20033;-72
2022/12/31 05:16:06;;;;;;;21.00;12.10;;;11.40;99.90;;;;;;4995791;28;20034;-73
2022/12/31 05:18:33;;;;;;;21.13;12.45;;;11.40;99.90;;;;;;5014343;28;20556;-72
2022/12/31 05:20:59;;;;;;;21.17;13.05;;;11.50;99.90;;;;;;5012919;28;20040;-70
2022/12/31 05:23:25;;;;;;;23.00;12.98;;;11.50;99.90;;;;;;4997729;28;20018;-72
2022/12/31 05:25:51;;;;;;;27.27;14.27;;;11.40;99.90;;;;;;5013751;28;20465;-71
2022/12/31 05:28:17;;;;;;;20.92;14.43;;;11.40;99.90;;;;;;5007590;28;20021;-72
2022/12/31 05:30:46;;;;;;;19.60;11.93;;;11.40;99.90;;;;;;5014351;28;20034;-71
2022/12/31 05:33:12;;;;;;;21.10;13.68;;;11.30;99.90;;;;;;5004830;28;20462;-71
2022/12/31 05:35:38;;;;;;;23.52;13.38;;;11.40;99.90;;;;;;5014942;28;20026;-71
2022/12/31 05:38:04;;;;;;;21.15;12.88;;;11.30;99.90;;;;;;4988917;28;20101;-72
2022/12/31 05:40:29;;;;;;;23.05;12.80;;;11.30;99.90;;;;;;4991682;28;20098;-72
2022/12/31 05:42:55;;;;;;;21.77;14.52;;;11.40;99.90;;;;;;4993596;28;20018;-72
2022/12/31 05:45:21;;;;;;;23.67;13.07;;;11.40;99.90;;;;;;5016099;28;20442;-72
2022/12/31 05:47:47;;;;;;;24.95;13.52;;;11.40;99.90;;;;;;4999133;28;20029;-72
2022/12/31 05:50:17;;;;;;;25.30;12.68;;;11.30;99.90;;;;;;5016044;28;20026;-72
2022/12/31 05:52:44;;;;;;;24.40;14.07;;;11.30;99.90;;;;;;5010277;28;20502;-72
2022/12/31 05:55:11;;;;;;;27.30;12.88;;;11.40;99.90;;;;;;5015749;28;20058;-73
2022/12/31 05:57:37;;;;;;;22.60;13.13;;;11.40;99.90;;;;;;5011013;28;20028;-73
2022/12/31 06:00:05;;;;;;;27.02;13.27;;;11.40;99.90;;;;;;5016839;28;20065;-73
2022/12/31 06:02:30;;;;;;;21.77;13.43;;;11.40;99.90;;;;;;5007822;28;20072;-72
2022/12/31 06:04:56;;;;;;;22.77;12.90;;;11.40;99.90;;;;;;4994483;28;20027;-73
2022/12/31 06:07:22;;;;;;;19.98;12.70;;;11.40;99.90;;;;;;5009387;28;20022;-71
2022/12/31 06:09:48;;;;;;;21.15;13.77;;;11.40;99.90;;;;;;5012086;28;20029;-71
2022/12/31 06:12:14;;;;;;;19.63;14.00;;;11.40;99.90;;;;;;5002242;28;20442;-72
2022/12/31 06:14:40;;;;;;;23.90;12.93;;;11.30;99.90;;;;;;5012165;28;20033;-73
2022/12/31 06:17:06;;;;;;;19.98;13.70;;;11.30;99.90;;;;;;4990815;28;20030;-72
2022/12/31 06:19:31;;;;;;;21.33;12.90;;;11.30;99.90;;;;;;4994455;28;20030;-72
2022/12/31 06:21:57;;;;;;;26.00;14.23;;;11.30;99.90;;;;;;5012746;28;20510;-72
2022/12/31 06:24:23;;;;;;;21.70;13.32;;;11.30;99.90;;;;;;5014384;28;20065;-73
2022/12/31 06:26:49;;;;;;;18.67;11.68;;;11.30;99.90;;;;;;4992844;28;20053;-73
2022/12/31 06:29:15;;;;;;;26.50;13.00;;;11.40;99.90;;;;;;5012597;28;20022;-72
2022/12/31 06:31:41;;;;;;;21.92;13.73;;;11.40;99.90;;;;;;5009987;28;20073;-71
2022/12/31 06:34:06;;;;;;;33.75;16.13;;;11.40;99.90;;;;;;4998112;28;20402;-72
2022/12/31 06:36:32;;;;;;;21.95;12.13;;;11.40;99.90;;;;;;5015492;28;20532;-73
2022/12/31 06:38:58;;;;;;;20.10;12.90;;;11.40;99.90;;;;;;5003725;28;20027;-73
2022/12/31 06:41:24;;;;;;;21.45;12.18;;;11.40;99.90;;;;;;5012093;28;20482;-72
2022/12/31 06:43:50;;;;;;;19.48;11.68;;;11.40;99.90;;;;;;4992068;28;20084;-71
2022/12/31 06:46:17;;;;;;;22.75;13.27;;;11.40;99.90;;;;;;5015451;28;20053;-71
2022/12/31 06:48:43;;;;;;;28.67;13.27;;;11.40;99.90;;;;;;4997924;28;20040;-72
2022/12/31 06:51:18;;;;;;;27.00;13.38;;;11.50;99.90;;;;;;4996679;28;20215;-73
2022/12/31 06:53:49;;;;;;;24.08;12.50;;;11.50;99.90;;;;;;5002125;28;20030;-72
2022/12/31 06:56:15;;;;;;;;;;;11.50;99.90;;;;;;5013636;28;20435;-73
2022/12/31 06:58:41;;;;;;;23.10;12.35;;;11.50;99.90;;;;;;5019862;28;19975;-73
2022/12/31 07:01:34;;;;;;;22.35;12.80;;;11.50;99.90;;;;;;5014317;28;20026;-72
2022/12/31 07:04:11;;;;;;;37.72;13.50;;;11.50;99.90;;;;;;4990971;28;20397;-72
2022/12/31 07:06:51;;;;;;;21.25;14.07;;;11.50;99.90;;;;;;5001277;28;20034;-72
2022/12/31 07:09:37;;;;;;;22.92;12.88;;;11.50;99.90;;;;;;5014861;28;20029;-73
2022/12/31 07:12:34;;;;;;;23.52;15.35;;;11.50;99.90;;;;;;5006799;28;20042;-73
2022/12/31 07:15:35;;;;;;;22.13;11.90;;;11.50;99.90;;;;;;5018261;28;20060;-72
2022/12/31 07:18:31;;;;;;;18.92;12.32;;;11.60;99.90;;;;;;5005126;28;21418;-73
2022/12/31 07:20:58;;;;;;;25.98;13.90;;;11.50;99.90;;;;;;5016193;28;20030;-73
2022/12/31 07:23:24;;;;;;;20.27;12.00;;;11.50;99.90;;;;;;5009830;28;20050;-72
2022/12/31 07:26:05;;;;;;;20.00;11.70;;;11.60;99.90;;;;;;5016791;28;20069;-72
2022/12/31 07:28:40;;;;;;;19.83;11.98;;;11.60;99.90;;;;;;5010301;28;20022;-73
2022/12/31 07:31:26;;;;;;;26.05;12.25;;;11.60;99.90;;;;;;5013542;28;20022;-72
2022/12/31 07:33:59;;;;;;;18.33;10.82;;;11.60;99.90;;;;;;4952623;28;20088;-71
2022/12/31 07:36:39;;;;;;;14.32;9.40;;;11.60;99.90;;;;;;5011092;28;20041;-72
2022/12/31 07:39:10;;;;;;;;;;;11.60;99.90;;;;;;4998335;28;20026;-72
2022/12/31 07:41:48;;;;;;;23.23;12.00;;;11.70;99.90;;;;;;4992253;28;19913;-72
2022/12/31 07:44:30;;;;;;;17.00;10.93;;;11.70;99.90;;;;;;5012124;28;20029;-72
2022/12/31 07:47:02;;;;;;;30.70;12.20;;;11.70;99.90;;;;;;5010317;28;20092;-73
2022/12/31 07:49:30;;;;;;;21.42;11.27;;;11.70;99.90;;;;;;5001419;28;20120;-73
2022/12/31 07:51:56;;;;;;;19.17;11.38;;;11.80;99.90;;;;;;5012346;28;20034;-72
2022/12/31 07:54:22;;;;;;;21.67;12.43;;;11.80;99.90;;;;;;5000943;28;20021;-72
2022/12/31 07:56:49;;;;;;;20.15;11.80;;;11.80;99.90;;;;;;5012115;28;20029;-72
2022/12/31 07:59:53;;;;;;;18.40;10.77;;;11.80;99.90;;;;;;5011667;28;20105;-73
2022/12/31 08:02:27;;;;;;;21.10;10.75;;;11.90;99.90;;;;;;4967075;28;20069;-71
2022/12/31 08:05:03;;;;;;;18.42;9.68;;;11.90;99.90;;;;;;5014355;28;20040;-74
2022/12/31 08:07:34;;;;;;;20.60;10.85;;;11.90;99.90;;;;;;4994956;28;20025;-75
2022/12/31 08:10:06;;;;;;;21.00;10.30;;;11.90;99.90;;;;;;5017717;28;20037;-75
2022/12/31 08:12:36;;;;;;;19.45;11.75;;;11.90;99.90;;;;;;4994355;28;20028;-74
2022/12/31 08:15:10;;;;;;;24.13;11.32;;;12.00;99.90;;;;;;5017814;28;20085;-74
2022/12/31 08:17:36;;;;;;;19.50;12.30;;;12.00;99.90;;;;;;5009337;28;20037;-74
2022/12/31 08:20:03;;;;;;;16.77;11.25;;;12.00;99.90;;;;;;5017925;28;20022;-74
2022/12/31 08:22:46;;;;;;;20.70;11.63;;;12.00;99.90;;;;;;5010565;28;20494;-75
2022/12/31 08:25:51;;;;;;;18.17;11.18;;;12.00;99.90;;;;;;4999374;28;20128;-75
2022/12/31 08:28:43;;;;;;;17.65;11.25;;;12.00;99.90;;;;;;4996779;28;20065;-75
2022/12/31 08:31:29;;;;;;;16.90;9.52;;;12.10;99.90;;;;;;4995239;28;20033;-75
2022/12/31 08:34:18;;;;;;;18.98;9.50;;;12.10;99.90;;;;;;4997002;28;20049;-74
2022/12/31 08:37:00;;;;;;;19.70;9.88;;;12.20;99.90;;;;;;5008028;28;20029;-75
2022/12/31 08:39:38;;;;;;;18.77;10.80;;;12.20;99.90;;;;;;4999037;28;20084;-76
2022/12/31 08:42:30;;;;;;;16.60;10.27;;;12.30;99.90;;;;;;4996622;28;20026;-74
2022/12/31 08:45:23;;;;;;;12.93;8.55;;;12.30;99.90;;;;;;5002855;28;20041;-74
2022/12/31 08:48:11;;;;;;;26.42;10.77;;;12.40;99.90;;;;;;5009579;28;20022;-74
2022/12/31 08:50:37;;;;;;;20.17;10.63;;;12.40;99.90;;;;;;5015244;28;20101;-73
2022/12/31 08:53:03;;;;;;;24.33;11.07;;;12.50;99.90;;;;;;5003658;28;20395;-75
2022/12/31 08:55:29;;;;;;;18.38;10.82;;;12.50;99.90;;;;;;4995623;28;20030;-74
2022/12/31 08:58:26;;;;;;;12.02;9.52;;;12.60;99.90;;;;;;5006100;28;20057;-75
2022/12/31 09:00:55;;;;;;;17.92;10.15;;;12.70;99.90;;;;;;5011012;28;20023;-75
2022/12/31 09:03:27;;;;;;;20.60;10.00;;;12.70;99.90;;;;;;5009429;28;20029;-77
2022/12/31 09:05:59;;;;;;;22.02;10.68;;;12.80;99.90;;;;;;4994716;28;20065;-79
2022/12/31 09:09:19;;;;;;;13.35;9.10;;;12.90;99.90;;;;;;5011678;28;20026;-77
2022/12/31 09:12:03;;;;;;;14.90;8.95;;;13.00;99.90;;;;;;4917127;29;20040;-78
2022/12/31 09:14:48;;;;;;;18.23;9.13;;;13.10;99.90;;;;;;5015559;28;20029;-78
2022/12/31 09:17:32;;;;;;;14.00;9.20;;;13.20;99.90;;;;;;4995404;28;20060;-78
2022/12/31 09:19:58;;;;;;;13.43;8.60;;;13.30;99.90;;;;;;4988440;28;20399;-79
2022/12/31 09:22:25;;;;;;;15.40;8.35;;;13.40;99.90;;;;;;4982568;28;20050;-79
2022/12/31 09:24:51;;;;;;;14.73;8.45;;;13.40;99.90;;;;;;5000781;28;20027;-77
2022/12/31 09:27:48;;;;;;;12.73;7.78;;;13.30;99.90;;;;;;5011846;28;20398;-79
2022/12/31 09:30:16;;;;;;;15.55;7.88;;;13.30;99.90;;;;;;4960157;28;20090;-78
2022/12/31 09:32:54;;;;;;;14.73;7.97;;;13.40;99.90;;;;;;4986194;28;20517;-77
2022/12/31 09:35:45;;;;;;;16.63;8.23;;;13.40;99.90;;;;;;4996112;28;20092;-77
2022/12/31 09:38:27;;;;;;;14.75;8.50;;;13.50;99.90;;;;;;5000153;28;20061;-76
2022/12/31 09:41:15;;;;;;;15.30;8.68;;;13.50;99.90;;;;;;5000432;28;20057;-82
2022/12/31 09:44:12;;;;;;;15.25;7.78;;;13.50;99.90;;;;;;5005809;28;20030;-79
2022/12/31 09:46:56;;;;;;;17.92;8.43;;;13.50;99.90;;;;;;5002459;28;20025;-78
2022/12/31 09:49:41;;;;;;;16.25;8.38;;;13.60;99.90;;;;;;5000965;28;20054;-79
2022/12/31 09:52:28;;;;;;;14.35;9.20;;;13.60;99.90;;;;;;5002529;28;20026;-77
2022/12/31 09:55:34;;;;;;;14.75;8.60;;;13.60;99.90;;;;;;4999056;28;20022;-78
2022/12/31 09:58:09;;;;;;;16.45;8.25;;;13.60;99.90;;;;;;4971409;28;20054;-79
2022/12/31 10:01:05;;;;;;;14.27;7.93;;;13.60;99.90;;;;;;5014500;28;20057;-80
2022/12/31 10:03:58;;;;;;;12.20;7.32;;;13.60;99.90;;;;;;4996868;28;20030;-79
2022/12/31 10:06:31;;;;;;;23.17;8.70;;;13.60;99.90;;;;;;5016917;28;20501;-79
2022/12/31 10:09:47;;;;;;;14.20;8.30;;;13.60;99.90;;;;;;5001869;28;20021;-77
2022/12/31 10:12:16;;;;;;;10.85;7.20;;;13.60;99.90;;;;;;4967501;28;20469;-78
2022/12/31 10:15:04;;;;;;;19.42;8.55;;;13.60;99.90;;;;;;5014992;28;20038;-77
2022/12/31 10:17:54;;;;;;;14.77;7.13;;;13.60;99.90;;;;;;5008726;28;20482;-79
2022/12/31 10:20:29;;;;;;;;;;;13.60;99.90;;;;;;5013572;28;20395;-78
2022/12/31 10:23:19;;;;;;;17.00;6.55;;;13.60;99.90;;;;;;5007710;28;19960;-79
2022/12/31 10:26:06;;;;;;;15.63;8.10;;;13.60;99.90;;;;;;5001597;28;20044;-79
2022/12/31 10:28:46;;;;;;;14.52;7.88;;;13.70;99.90;;;;;;4992893;28;20478;-78
2022/12/31 10:31:19;;;;;;;17.17;7.97;;;13.70;99.90;;;;;;5018346;28;20061;-80
2022/12/31 10:34:06;;;;;;;13.25;8.07;;;13.80;99.90;;;;;;4999769;28;20026;-78
2022/12/31 10:37:02;;;;;;;13.98;8.30;;;13.80;99.90;;;;;;5016000;28;20022;-80
2022/12/31 10:39:28;;;;;;;15.65;8.48;;;13.80;99.90;;;;;;5020055;28;20100;-82
2022/12/31 10:42:28;;;;;;;13.25;7.90;;;13.90;99.90;;;;;;5016205;28;20502;-78
2022/12/31 10:45:32;;;;;;;15.37;7.57;;;14.00;99.90;;;;;;4998880;28;20476;-78
2022/12/31 10:48:27;;;;;;;18.95;7.13;;;13.90;99.90;;;;;;4994531;28;20050;-80
2022/12/31 10:51:14;;;;;;;17.95;8.48;;;13.90;99.90;;;;;;4997481;28;20028;-78
2022/12/31 10:53:46;;;;;;;15.85;7.65;;;13.90;99.90;;;;;;5016375;28;20025;-81
2022/12/31 10:56:39;;;;;;;18.33;9.02;;;13.80;99.90;;;;;;4998846;28;20124;-83
2022/12/31 10:59:37;;;;;;;13.98;8.15;;;13.80;99.90;;;;;;5018641;28;20022;-78
2022/12/31 11:02:06;;;;;;;17.42;8.85;;;13.70;99.90;;;;;;5015717;28;20636;-78
2022/12/31 11:05:05;;;;;;;12.70;7.18;;;13.60;99.90;;;;;;5002163;28;20025;-77
2022/12/31 11:07:58;;;;;;;17.98;7.47;;;13.60;99.90;;;;;;5012453;28;20026;-80
2022/12/31 11:10:55;;;;;;;15.65;8.43;;;13.50;99.90;;;;;;4993651;28;20058;-80
2022/12/31 11:13:34;;;;;;;18.92;7.97;;;13.60;99.90;;;;;;5015268;28;20109;-78
2022/12/31 11:16:22;;;;;;;13.68;7.13;;;13.60;99.90;;;;;;5014002;28;20018;-78
2022/12/31 11:19:23;;;;;;;16.92;9.07;;;13.60;99.90;;;;;;5011604;28;20029;-81
2022/12/31 11:22:14;;;;;;;19.70;8.07;;;13.70;99.90;;;;;;5016788;28;20069;-79
2022/12/31 11:25:16;;;;;;;16.83;7.25;;;13.70;99.90;;;;;;5018304;28;20025;-79
2022/12/31 11:28:39;;;;;;;17.17;7.32;;;13.70;99.90;;;;;;5009188;28;20121;-78
2022/12/31 11:31:15;;;;;;;15.32;8.38;;;13.80;99.90;;;;;;4957997;28;20031;-78
2022/12/31 11:33:49;;;;;;;17.58;7.78;;;13.80;99.90;;;;;;4958736;28;20023;-78
2022/12/31 11:36:46;;;;;;;13.13;8.95;;;13.80;99.90;;;;;;4969479;28;20034;-79
2022/12/31 11:39:42;;;;;;;11.20;6.75;;;13.90;99.90;;;;;;4995476;28;20014;-78
2022/12/31 11:42:18;;;;;;;15.52;8.32;;;14.00;99.90;;;;;;5004614;28;20034;-80
2022/12/31 11:45:08;;;;;;;14.63;8.32;;;14.00;99.90;;;;;;5010071;28;20029;-78
2022/12/31 11:48:06;;;;;;;17.55;8.50;;;14.10;99.90;;;;;;4985202;28;20042;-77
2022/12/31 11:50:57;;;;;;;8.93;5.82;;;14.10;99.90;;;;;;5015384;28;20026;-78
2022/12/31 11:53:56;;;;;;;19.65;7.95;;;14.10;99.90;;;;;;4989124;28;20027;-79
2022/12/31 11:56:27;;;;;;;15.40;6.72;;;14.20;99.90;;;;;;5012290;28;20023;-80
2022/12/31 11:58:55;;;;;;;12.10;7.13;;;14.20;99.90;;;;;;4995235;28;20022;-79
2022/12/31 12:01:26;;;;;;;14.10;7.15;;;14.20;99.90;;;;;;5012371;28;20053;-79
2022/12/31 12:03:52;;;;;;;15.32;7.63;;;14.30;99.90;;;;;;5013488;28;20057;-80
2022/12/31 12:06:24;;;;;;;16.45;8.13;;;14.30;99.90;;;;;;4995276;28;20404;-82
2022/12/31 12:08:50;;;;;;;13.57;6.55;;;14.30;99.90;;;;;;5010989;28;20017;-83
2022/12/31 12:11:22;;;;;;;12.98;6.75;;;14.30;99.90;;;;;;5013613;28;20070;-78
2022/12/31 12:13:48;;;;;;;17.80;7.43;;;14.20;99.90;;;;;;5008257;28;20025;-81
2022/12/31 12:16:14;;;;;;;13.05;6.88;;;14.20;99.90;;;;;;4997324;28;20571;-81
2022/12/31 12:18:46;;;;;;;11.73;6.68;;;14.20;99.90;;;;;;5008283;28;20113;-80
2022/12/31 12:21:13;;;;;;;12.85;6.80;;;14.20;99.90;;;;;;5015516;28;20029;-79
2022/12/31 12:23:43;;;;;;;11.32;6.05;;;14.20;99.90;;;;;;5009055;28;20049;-80
2022/12/31 12:26:27;;;;;;;14.95;6.72;;;14.20;99.90;;;;;;5015714;28;20049;-80
2022/12/31 12:28:53;;;;;;;20.67;6.57;;;14.20;99.90;;;;;;4993713;28;20422;-79
2022/12/31 12:31:21;;;;;;;11.70;7.38;;;14.20;99.90;;;;;;5011468;28;20026;-78
2022/12/31 12:33:50;;;;;;;13.05;7.05;;;14.20;99.90;;;;;;5011338;28;20058;-79
2022/12/31 12:36:19;;;;;;;10.90;5.93;;;14.20;99.90;;;;;;4996593;28;20030;-78
2022/12/31 12:38:45;;;;;;;11.85;6.57;;;14.20;99.90;;;;;;5017779;28;20022;-78
2022/12/31 12:41:23;;;;;;;12.93;6.20;;;14.20;99.90;;;;;;4994454;28;20041;-78
2022/12/31 12:44:00;;;;;;;16.30;7.65;;;14.20;99.90;;;;;;5014169;28;20022;-80
2022/12/31 12:46:43;;;;;;;12.32;6.55;;;14.30;99.90;;;;;;4993262;28;20030;-79
2022/12/31 12:49:23;;;;;;;10.90;6.18;;;14.30;99.90;;;;;;5017730;28;20029;-78
2022/12/31 12:52:20;;;;;;;13.95;6.43;;;14.40;99.90;;;;;;5011215;28;20112;-77
2022/12/31 12:55:13;;;;;;;14.48;6.32;;;14.50;99.90;;;;;;5017659;28;20046;-78
2022/12/31 12:58:04;;;;;;;15.00;7.32;;;14.50;99.90;;;;;;5011103;28;20029;-80
2022/12/31 13:00:53;;;;;;;11.63;6.03;;;14.60;99.90;;;;;;5015623;28;20033;-78
2022/12/31 13:03:24;;;;;;;12.15;6.18;;;14.60;99.90;;;;;;4996758;28;20026;-77
2022/12/31 13:06:18;;;;;;;14.80;6.75;;;14.60;99.90;;;;;;5015298;28;20065;-79
2022/12/31 13:09:04;;;;;;;15.77;8.15;;;14.50;99.90;;;;;;5008813;28;20467;-81
2022/12/31 13:11:59;;;;;;;10.77;6.75;;;14.60;99.90;;;;;;5013400;28;20033;-79
2022/12/31 13:14:46;;;;;;;12.05;6.45;;;14.60;99.90;;;;;;5015391;28;20026;-78
2022/12/31 13:17:11;;;;;;;9.38;5.90;;;14.60;99.90;;;;;;5014666;28;20038;-78